RYR2975 EGPH-EPRZ
Flight info
| Callsign | RYR2975 |
|---|---|
| Flight time | 2h 28m |
| Altitude | 35000 |
| Route | TLA Y96 OTBUN DCT RENEQ DCT HLZ DCT BOLBO DCT LASIS DCT ETITI |
| Aircraft | B738/M-SDE2E3FGHIRWXY/LB1 |
Departure
| Time | 2026-04-22 14:03 |
|---|---|
| Airport | Edinburgh Airport (EGPH) |
Arrival
| Time | 2026-04-22 16:31 |
|---|---|
| Airport | Rzeszów-Jasionka Airport (EPRZ) |
| Time | Latitude | Longitude | Altitude | Speed | Heading |
|---|---|---|---|---|---|
| 2026-04-22 13:33 | 55.94703 | -3.36606 | 106 ft | 0 kts | 88° |
| 2026-04-22 13:53 | 55.94703 | -3.36609 | 106 ft | 2 kts | 88° |
| 2026-04-22 13:53 | 55.94703 | -3.36639 | 106 ft | 2 kts | 89° |
| 2026-04-22 13:54 | 55.94703 | -3.36668 | 105 ft | 2 kts | 89° |
| 2026-04-22 13:54 | 55.94703 | -3.36697 | 106 ft | 2 kts | 89° |
| 2026-04-22 13:54 | 55.94700 | -3.36725 | 106 ft | 2 kts | 55° |
| 2026-04-22 13:54 | 55.94693 | -3.36738 | 103 ft | 0 kts | 7° |
| 2026-04-22 13:58 | 55.94702 | -3.36737 | 105 ft | 6 kts | 2° |
| 2026-04-22 13:58 | 55.94770 | -3.36765 | 105 ft | 15 kts | 335° |
| 2026-04-22 13:59 | 55.94872 | -3.36782 | 108 ft | 15 kts | 346° |
| 2026-04-22 13:59 | 55.94922 | -3.36887 | 108 ft | 3 kts | 262° |
| 2026-04-22 13:59 | 55.94904 | -3.36957 | 106 ft | 11 kts | 240° |
| 2026-04-22 13:59 | 55.94836 | -3.37159 | 108 ft | 28 kts | 239° |
| 2026-04-22 14:00 | 55.94715 | -3.37515 | 113 ft | 35 kts | 239° |
| 2026-04-22 14:00 | 55.94593 | -3.37875 | 115 ft | 33 kts | 239° |
| 2026-04-22 14:00 | 55.94477 | -3.38215 | 112 ft | 31 kts | 238° |
| 2026-04-22 14:00 | 55.94371 | -3.38530 | 115 ft | 29 kts | 239° |
| 2026-04-22 14:01 | 55.94284 | -3.38809 | 120 ft | 12 kts | 262° |
| 2026-04-22 14:01 | 55.94302 | -3.38879 | 120 ft | 7 kts | 310° |
| 2026-04-22 14:01 | 55.94348 | -3.38926 | 122 ft | 8 kts | 334° |
| 2026-04-22 14:01 | 55.94404 | -3.38964 | 117 ft | 9 kts | 359° |
| 2026-04-22 14:02 | 55.94419 | -3.38945 | 120 ft | 1 kts | 54° |
| 2026-04-22 14:02 | 55.94430 | -3.38920 | 120 ft | 6 kts | 56° |
| 2026-04-22 14:02 | 55.94497 | -3.38726 | 117 ft | 54 kts | 59° |
| 2026-04-22 14:02 | 55.94841 | -3.37712 | 115 ft | 135 kts | 59° |
| 2026-04-22 14:03 | 55.95382 | -3.36107 | 833 ft | 152 kts | 60° |
| 2026-04-22 14:03 | 55.96009 | -3.34356 | 1630 ft | 186 kts | 53° |
| 2026-04-22 14:03 | 55.97011 | -3.32725 | 2459 ft | 206 kts | 43° |
| 2026-04-22 14:03 | 55.98161 | -3.30980 | 3219 ft | 228 kts | 45° |
| 2026-04-22 14:04 | 55.99392 | -3.29002 | 3973 ft | 249 kts | 46° |
| 2026-04-22 14:04 | 56.00727 | -3.26856 | 4754 ft | 273 kts | 45° |
| 2026-04-22 14:04 | 56.02198 | -3.24507 | 5583 ft | 295 kts | 44° |
| 2026-04-22 14:04 | 56.03776 | -3.21961 | 6395 ft | 315 kts | 48° |
| 2026-04-22 14:05 | 56.04951 | -3.18602 | 7168 ft | 327 kts | 76° |
| 2026-04-22 14:05 | 56.05115 | -3.14502 | 7964 ft | 338 kts | 98° |
| 2026-04-22 14:05 | 56.03677 | -3.06275 | 9521 ft | 363 kts | 130° |
| 2026-04-22 14:06 | 56.01683 | -3.03447 | 10376 ft | 373 kts | 151° |
| 2026-04-22 14:06 | 55.99375 | -3.01268 | 11325 ft | 377 kts | 149° |
| 2026-04-22 14:06 | 55.97102 | -2.98840 | 12203 ft | 382 kts | 152° |
| 2026-04-22 14:06 | 55.94584 | -2.97362 | 13058 ft | 387 kts | 173° |
| 2026-04-22 14:07 | 55.91899 | -2.97841 | 13972 ft | 393 kts | 197° |
| 2026-04-22 14:07 | 55.89493 | -3.00231 | 14728 ft | 403 kts | 217° |
| 2026-04-22 14:07 | 55.87399 | -3.03494 | 15490 ft | 405 kts | 218° |
| 2026-04-22 14:07 | 55.85140 | -3.06521 | 16155 ft | 408 kts | 212° |
| 2026-04-22 14:08 | 55.82689 | -3.09124 | 16841 ft | 411 kts | 206° |
| 2026-04-22 14:08 | 55.80130 | -3.11412 | 17527 ft | 413 kts | 204° |
| 2026-04-22 14:08 | 55.77501 | -3.13543 | 18181 ft | 416 kts | 202° |
| 2026-04-22 14:08 | 55.74838 | -3.15630 | 18771 ft | 420 kts | 202° |
| 2026-04-22 14:09 | 55.72156 | -3.17697 | 19291 ft | 422 kts | 200° |
| 2026-04-22 14:09 | 55.69284 | -3.18716 | 19746 ft | 424 kts | 179° |
| 2026-04-22 14:09 | 55.66405 | -3.17800 | 20407 ft | 422 kts | 163° |
| 2026-04-22 14:09 | 55.63732 | -3.15604 | 20873 ft | 426 kts | 150° |
| 2026-04-22 14:10 | 55.61418 | -3.12299 | 21381 ft | 430 kts | 138° |
| 2026-04-22 14:10 | 55.59291 | -3.08579 | 21910 ft | 431 kts | 137° |
| 2026-04-22 14:10 | 55.57204 | -3.04859 | 22405 ft | 431 kts | 137° |
| 2026-04-22 14:10 | 55.55086 | -3.01098 | 22947 ft | 432 kts | 137° |
| 2026-04-22 14:11 | 55.52953 | -2.97348 | 23485 ft | 432 kts | 137° |
| 2026-04-22 14:11 | 55.50811 | -2.93620 | 24033 ft | 432 kts | 137° |
| 2026-04-22 14:11 | 55.48659 | -2.89899 | 24495 ft | 432 kts | 137° |
| 2026-04-22 14:11 | 55.46511 | -2.86200 | 24924 ft | 433 kts | 138° |
| 2026-04-22 14:12 | 55.44331 | -2.82457 | 25151 ft | 440 kts | 138° |
| 2026-04-22 14:12 | 55.42131 | -2.78682 | 25391 ft | 445 kts | 138° |
| 2026-04-22 14:12 | 55.39901 | -2.74862 | 25646 ft | 450 kts | 138° |
| 2026-04-22 14:12 | 55.37648 | -2.70979 | 25893 ft | 455 kts | 136° |
| 2026-04-22 14:13 | 55.35630 | -2.66735 | 26122 ft | 462 kts | 126° |
| 2026-04-22 14:13 | 55.33974 | -2.61868 | 26381 ft | 467 kts | 120° |
| 2026-04-22 14:13 | 55.32429 | -2.56831 | 26634 ft | 470 kts | 120° |
| 2026-04-22 14:13 | 55.30847 | -2.51780 | 26887 ft | 474 kts | 120° |
| 2026-04-22 14:14 | 55.29236 | -2.46717 | 27143 ft | 477 kts | 118° |
| 2026-04-22 14:14 | 55.27886 | -2.41367 | 27389 ft | 481 kts | 110° |
| 2026-04-22 14:14 | 55.27016 | -2.35697 | 27657 ft | 483 kts | 102° |
| 2026-04-22 14:14 | 55.26318 | -2.29917 | 27930 ft | 485 kts | 102° |
| 2026-04-22 14:15 | 55.25628 | -2.24105 | 28195 ft | 487 kts | 102° |
| 2026-04-22 14:15 | 55.24932 | -2.18293 | 28465 ft | 487 kts | 102° |
| 2026-04-22 14:15 | 55.24223 | -2.12483 | 28739 ft | 487 kts | 102° |
| 2026-04-22 14:15 | 55.23748 | -2.08638 | 28928 ft | 487 kts | 102° |
| 2026-04-22 14:16 | 55.23022 | -2.02848 | 29209 ft | 487 kts | 102° |
| 2026-04-22 14:16 | 55.22048 | -1.95172 | 29576 ft | 487 kts | 102° |
| 2026-04-22 14:16 | 55.21546 | -1.91250 | 29762 ft | 487 kts | 102° |
| 2026-04-22 14:16 | 55.20802 | -1.85464 | 30041 ft | 486 kts | 102° |
| 2026-04-22 14:17 | 55.20058 | -1.79698 | 30332 ft | 486 kts | 102° |
| 2026-04-22 14:17 | 55.19309 | -1.73925 | 30611 ft | 486 kts | 102° |
| 2026-04-22 14:17 | 55.18569 | -1.68238 | 30854 ft | 485 kts | 102° |
| 2026-04-22 14:17 | 55.17808 | -1.62407 | 31103 ft | 485 kts | 102° |
| 2026-04-22 14:18 | 55.17065 | -1.56738 | 31347 ft | 484 kts | 102° |
| 2026-04-22 14:18 | 55.16669 | -1.53722 | 31477 ft | 484 kts | 102° |
| 2026-04-22 14:19 | 55.16472 | -1.52226 | 31535 ft | 483 kts | 102° |
| 2026-04-22 14:19 | 55.15715 | -1.46491 | 31793 ft | 483 kts | 103° |
| 2026-04-22 14:19 | 55.14959 | -1.40780 | 32043 ft | 482 kts | 103° |
| 2026-04-22 14:19 | 55.14202 | -1.35090 | 32296 ft | 480 kts | 103° |
| 2026-04-22 14:20 | 55.12683 | -1.23735 | 32809 ft | 478 kts | 103° |
| 2026-04-22 14:20 | 55.11924 | -1.18088 | 33085 ft | 476 kts | 103° |
| 2026-04-22 14:20 | 55.11164 | -1.12461 | 33332 ft | 475 kts | 103° |
| 2026-04-22 14:21 | 55.09644 | -1.01266 | 33865 ft | 472 kts | 103° |
| 2026-04-22 14:21 | 55.08885 | -0.95712 | 34137 ft | 470 kts | 103° |
| 2026-04-22 14:22 | 55.07377 | -0.84722 | 34650 ft | 466 kts | 103° |
| 2026-04-22 14:22 | 55.06619 | -0.79237 | 34880 ft | 464 kts | 104° |
| 2026-04-22 14:23 | 55.04320 | -0.62704 | 34976 ft | 471 kts | 104° |
| 2026-04-22 14:23 | 55.02762 | -0.51601 | 34977 ft | 472 kts | 104° |
| 2026-04-22 14:24 | 55.01222 | -0.40707 | 34988 ft | 474 kts | 104° |
| 2026-04-22 14:24 | 54.99639 | -0.29588 | 34975 ft | 477 kts | 104° |
| 2026-04-22 14:25 | 54.98031 | -0.18373 | 34985 ft | 477 kts | 104° |
| 2026-04-22 14:25 | 54.96410 | -0.07145 | 34974 ft | 477 kts | 104° |
| 2026-04-22 14:26 | 54.94785 | 0.04023 | 34967 ft | 476 kts | 105° |
| 2026-04-22 14:26 | 54.93155 | 0.15147 | 34972 ft | 474 kts | 105° |
| 2026-04-22 14:27 | 54.91523 | 0.26210 | 34974 ft | 471 kts | 105° |
| 2026-04-22 14:27 | 54.89887 | 0.37225 | 34965 ft | 469 kts | 105° |
| 2026-04-22 14:28 | 54.88262 | 0.48089 | 34975 ft | 466 kts | 105° |
| 2026-04-22 14:28 | 54.86625 | 0.58958 | 34978 ft | 464 kts | 105° |
| 2026-04-22 14:29 | 54.84986 | 0.69770 | 34973 ft | 462 kts | 105° |
| 2026-04-22 14:29 | 54.83344 | 0.80530 | 34969 ft | 460 kts | 105° |
| 2026-04-22 14:30 | 54.81700 | 0.91237 | 34971 ft | 459 kts | 105° |
| 2026-04-22 14:30 | 54.80049 | 1.01910 | 34958 ft | 457 kts | 105° |
| 2026-04-22 14:31 | 54.78406 | 1.12469 | 34970 ft | 456 kts | 106° |
| 2026-04-22 14:31 | 54.76744 | 1.23083 | 34961 ft | 455 kts | 106° |
| 2026-04-22 14:32 | 54.75079 | 1.33644 | 34965 ft | 455 kts | 105° |
| 2026-04-22 14:32 | 54.73403 | 1.44210 | 34963 ft | 455 kts | 105° |
| 2026-04-22 14:33 | 54.71716 | 1.54781 | 34958 ft | 455 kts | 105° |
| 2026-04-22 14:33 | 54.70021 | 1.65330 | 34955 ft | 456 kts | 105° |
| 2026-04-22 14:34 | 54.68314 | 1.75892 | 34958 ft | 456 kts | 105° |
| 2026-04-22 14:34 | 54.66608 | 1.86380 | 34957 ft | 456 kts | 105° |
| 2026-04-22 14:35 | 54.64882 | 1.96930 | 34958 ft | 456 kts | 105° |
| 2026-04-22 14:35 | 54.63147 | 2.07470 | 34952 ft | 456 kts | 105° |
| 2026-04-22 14:36 | 54.61403 | 2.17999 | 34959 ft | 456 kts | 105° |
| 2026-04-22 14:36 | 54.59649 | 2.28523 | 34956 ft | 456 kts | 105° |
| 2026-04-22 14:37 | 54.57886 | 2.39037 | 34956 ft | 456 kts | 105° |
| 2026-04-22 14:37 | 54.56114 | 2.49538 | 34948 ft | 456 kts | 105° |
| 2026-04-22 14:38 | 54.54335 | 2.60025 | 34947 ft | 456 kts | 105° |
| 2026-04-22 14:38 | 54.52557 | 2.70443 | 34952 ft | 456 kts | 105° |
| 2026-04-22 14:39 | 54.50758 | 2.80916 | 34953 ft | 456 kts | 105° |
| 2026-04-22 14:39 | 54.48949 | 2.91391 | 34947 ft | 457 kts | 105° |
| 2026-04-22 14:40 | 54.46215 | 3.07102 | 34948 ft | 457 kts | 105° |
| 2026-04-22 14:40 | 54.44382 | 3.17563 | 34950 ft | 457 kts | 105° |
| 2026-04-22 14:41 | 54.42538 | 3.28018 | 34944 ft | 457 kts | 105° |
| 2026-04-22 14:41 | 54.40684 | 3.38476 | 34944 ft | 457 kts | 105° |
| 2026-04-22 14:42 | 54.38820 | 3.48930 | 34944 ft | 458 kts | 105° |
| 2026-04-22 14:42 | 54.36959 | 3.59301 | 34941 ft | 458 kts | 105° |
| 2026-04-22 14:43 | 54.35076 | 3.69743 | 34942 ft | 458 kts | 105° |
| 2026-04-22 14:43 | 54.33186 | 3.80160 | 34944 ft | 458 kts | 105° |
| 2026-04-22 14:44 | 54.31289 | 3.90560 | 34940 ft | 457 kts | 105° |
| 2026-04-22 14:44 | 54.29381 | 4.00962 | 34940 ft | 457 kts | 106° |
| 2026-04-22 14:45 | 54.27480 | 4.11266 | 34937 ft | 457 kts | 106° |
| 2026-04-22 14:45 | 54.25559 | 4.21635 | 34940 ft | 457 kts | 106° |
| 2026-04-22 14:46 | 54.23578 | 4.31953 | 34939 ft | 457 kts | 109° |
| 2026-04-22 14:46 | 54.21122 | 4.41980 | 34937 ft | 457 kts | 112° |
| 2026-04-22 14:47 | 54.18543 | 4.51914 | 34932 ft | 457 kts | 112° |
| 2026-04-22 14:47 | 54.15977 | 4.61857 | 34930 ft | 457 kts | 111° |
| 2026-04-22 14:48 | 54.13434 | 4.71798 | 34927 ft | 457 kts | 111° |
| 2026-04-22 14:48 | 54.10892 | 4.81740 | 34926 ft | 457 kts | 111° |
| 2026-04-22 14:49 | 54.08348 | 4.91658 | 34930 ft | 457 kts | 111° |
| 2026-04-22 14:49 | 54.05811 | 5.01502 | 34929 ft | 457 kts | 111° |
| 2026-04-22 14:50 | 54.03249 | 5.11398 | 34927 ft | 457 kts | 111° |
| 2026-04-22 14:50 | 54.00677 | 5.21287 | 34925 ft | 457 kts | 111° |
| 2026-04-22 14:51 | 53.98098 | 5.31160 | 34922 ft | 457 kts | 111° |
| 2026-04-22 14:51 | 53.95526 | 5.40964 | 34920 ft | 457 kts | 112° |
| 2026-04-22 14:52 | 53.92930 | 5.50818 | 34921 ft | 457 kts | 112° |
| 2026-04-22 14:52 | 53.90326 | 5.60658 | 34916 ft | 457 kts | 112° |
| 2026-04-22 14:53 | 53.87716 | 5.70475 | 34921 ft | 457 kts | 112° |
| 2026-04-22 14:53 | 53.85095 | 5.80297 | 34916 ft | 457 kts | 112° |
| 2026-04-22 14:54 | 53.82469 | 5.90093 | 34914 ft | 457 kts | 112° |
| 2026-04-22 14:54 | 53.79850 | 5.99817 | 34909 ft | 457 kts | 112° |
| 2026-04-22 14:55 | 53.77206 | 6.09598 | 34906 ft | 457 kts | 112° |
| 2026-04-22 14:55 | 53.74556 | 6.19357 | 34905 ft | 457 kts | 112° |
| 2026-04-22 14:56 | 53.71895 | 6.29116 | 34897 ft | 457 kts | 112° |
| 2026-04-22 14:56 | 53.69230 | 6.38848 | 34900 ft | 457 kts | 112° |
| 2026-04-22 14:57 | 53.66553 | 6.48581 | 34893 ft | 457 kts | 112° |
| 2026-04-22 14:57 | 53.63869 | 6.58300 | 34890 ft | 457 kts | 112° |
| 2026-04-22 14:58 | 53.61174 | 6.68016 | 34891 ft | 457 kts | 112° |
| 2026-04-22 14:58 | 53.58472 | 6.77719 | 34890 ft | 458 kts | 112° |
| 2026-04-22 14:59 | 53.55781 | 6.87341 | 34887 ft | 458 kts | 112° |
| 2026-04-22 14:59 | 53.53064 | 6.97016 | 34891 ft | 458 kts | 112° |
| 2026-04-22 15:00 | 53.50335 | 7.06694 | 34880 ft | 458 kts | 113° |
| 2026-04-22 15:00 | 53.47598 | 7.16361 | 34890 ft | 458 kts | 113° |
| 2026-04-22 15:01 | 53.44852 | 7.26018 | 34897 ft | 458 kts | 113° |
| 2026-04-22 15:01 | 53.42101 | 7.35653 | 34889 ft | 458 kts | 113° |
| 2026-04-22 15:02 | 53.39363 | 7.45203 | 34888 ft | 458 kts | 113° |
| 2026-04-22 15:02 | 53.36594 | 7.54822 | 34885 ft | 457 kts | 113° |
| 2026-04-22 15:03 | 53.33824 | 7.64406 | 34866 ft | 457 kts | 113° |
| 2026-04-22 15:03 | 53.31046 | 7.73980 | 34864 ft | 457 kts | 113° |
| 2026-04-22 15:04 | 53.28731 | 7.81926 | 34857 ft | 457 kts | 114° |
| 2026-04-22 15:04 | 53.25941 | 7.91471 | 34861 ft | 457 kts | 114° |
| 2026-04-22 15:05 | 53.23142 | 8.01005 | 34854 ft | 457 kts | 114° |
| 2026-04-22 15:05 | 53.20332 | 8.10538 | 34858 ft | 457 kts | 114° |
| 2026-04-22 15:06 | 53.17515 | 8.20057 | 34862 ft | 457 kts | 114° |
| 2026-04-22 15:06 | 53.14691 | 8.29562 | 34848 ft | 457 kts | 114° |
| 2026-04-22 15:07 | 53.11862 | 8.39045 | 34842 ft | 457 kts | 114° |
| 2026-04-22 15:07 | 53.09045 | 8.48454 | 34839 ft | 457 kts | 114° |
| 2026-04-22 15:08 | 53.06203 | 8.57906 | 34835 ft | 457 kts | 114° |
| 2026-04-22 15:08 | 53.03354 | 8.67344 | 34834 ft | 456 kts | 114° |
| 2026-04-22 15:09 | 53.00498 | 8.76767 | 34836 ft | 456 kts | 114° |
| 2026-04-22 15:09 | 52.97640 | 8.86163 | 34832 ft | 456 kts | 114° |
| 2026-04-22 15:10 | 52.94779 | 8.95530 | 34837 ft | 455 kts | 114° |
| 2026-04-22 15:10 | 52.91907 | 9.04895 | 34835 ft | 455 kts | 114° |
| 2026-04-22 15:11 | 52.89034 | 9.14232 | 34836 ft | 455 kts | 114° |
| 2026-04-22 15:11 | 52.86153 | 9.23554 | 34831 ft | 454 kts | 114° |
| 2026-04-22 15:12 | 52.83266 | 9.32860 | 34829 ft | 454 kts | 114° |
| 2026-04-22 15:12 | 52.80376 | 9.42142 | 34821 ft | 454 kts | 114° |
| 2026-04-22 15:13 | 52.77482 | 9.51402 | 34822 ft | 453 kts | 114° |
| 2026-04-22 15:13 | 52.74597 | 9.60596 | 34818 ft | 453 kts | 115° |
| 2026-04-22 15:14 | 52.71693 | 9.69814 | 34813 ft | 453 kts | 115° |
| 2026-04-22 15:14 | 52.68785 | 9.79013 | 34810 ft | 452 kts | 115° |
| 2026-04-22 15:15 | 52.65874 | 9.88188 | 34807 ft | 452 kts | 115° |
| 2026-04-22 15:15 | 52.62957 | 9.97344 | 34807 ft | 451 kts | 115° |
| 2026-04-22 15:16 | 52.60033 | 10.06490 | 34806 ft | 451 kts | 115° |
| 2026-04-22 15:16 | 52.57105 | 10.15614 | 34808 ft | 450 kts | 115° |
| 2026-04-22 15:17 | 52.54174 | 10.24711 | 34809 ft | 450 kts | 115° |
| 2026-04-22 15:17 | 52.51233 | 10.33807 | 34806 ft | 450 kts | 115° |
| 2026-04-22 15:18 | 52.48313 | 10.42806 | 34804 ft | 450 kts | 115° |
| 2026-04-22 15:18 | 52.45369 | 10.51847 | 34800 ft | 449 kts | 115° |
| 2026-04-22 15:19 | 52.42425 | 10.60855 | 34809 ft | 448 kts | 115° |
| 2026-04-22 15:19 | 52.39474 | 10.69858 | 34803 ft | 448 kts | 115° |
| 2026-04-22 15:20 | 52.36526 | 10.78841 | 34801 ft | 447 kts | 114° |
| 2026-04-22 15:20 | 52.34179 | 10.88195 | 34799 ft | 444 kts | 108° |
| 2026-04-22 15:21 | 52.32064 | 10.97678 | 34802 ft | 443 kts | 107° |
| 2026-04-22 15:21 | 52.29930 | 11.07131 | 34798 ft | 443 kts | 108° |
| 2026-04-22 15:22 | 52.27766 | 11.16545 | 34791 ft | 443 kts | 108° |
| 2026-04-22 15:22 | 52.25585 | 11.25926 | 34787 ft | 442 kts | 108° |
| 2026-04-22 15:23 | 52.23393 | 11.35299 | 34792 ft | 441 kts | 108° |
| 2026-04-22 15:23 | 52.21212 | 11.44587 | 34792 ft | 441 kts | 108° |
| 2026-04-22 15:24 | 52.19012 | 11.53919 | 34789 ft | 441 kts | 108° |
| 2026-04-22 15:24 | 52.16806 | 11.63237 | 34787 ft | 440 kts | 108° |
| 2026-04-22 15:25 | 52.14596 | 11.72532 | 34784 ft | 440 kts | 108° |
| 2026-04-22 15:25 | 52.12391 | 11.81766 | 34780 ft | 440 kts | 108° |
| 2026-04-22 15:26 | 52.10170 | 11.91026 | 34785 ft | 439 kts | 108° |
| 2026-04-22 15:26 | 52.07944 | 12.00269 | 34786 ft | 439 kts | 108° |
| 2026-04-22 15:27 | 52.05712 | 12.09496 | 34784 ft | 439 kts | 108° |
| 2026-04-22 15:27 | 52.03473 | 12.18716 | 34776 ft | 438 kts | 108° |
| 2026-04-22 15:28 | 52.01229 | 12.27915 | 34775 ft | 438 kts | 108° |
| 2026-04-22 15:28 | 51.98980 | 12.37100 | 34775 ft | 438 kts | 109° |
| 2026-04-22 15:29 | 51.96736 | 12.46224 | 34767 ft | 437 kts | 109° |
| 2026-04-22 15:30 | 51.93341 | 12.59956 | 34761 ft | 437 kts | 109° |
| 2026-04-22 15:30 | 51.91070 | 12.69095 | 34760 ft | 437 kts | 109° |
| 2026-04-22 15:31 | 51.88796 | 12.78207 | 34752 ft | 436 kts | 109° |
| 2026-04-22 15:31 | 51.86515 | 12.87313 | 34753 ft | 436 kts | 109° |
| 2026-04-22 15:32 | 51.84234 | 12.96384 | 34749 ft | 435 kts | 109° |
| 2026-04-22 15:32 | 51.81950 | 13.05434 | 34753 ft | 434 kts | 109° |
| 2026-04-22 15:33 | 51.79677 | 13.14405 | 34752 ft | 434 kts | 108° |
| 2026-04-22 15:33 | 51.77691 | 13.23582 | 34756 ft | 432 kts | 105° |
| 2026-04-22 15:34 | 51.75821 | 13.32792 | 34753 ft | 431 kts | 105° |
| 2026-04-22 15:34 | 51.73941 | 13.41984 | 34745 ft | 431 kts | 105° |
| 2026-04-22 15:35 | 51.72365 | 13.49597 | 34743 ft | 430 kts | 105° |
| 2026-04-22 15:35 | 51.70131 | 13.60301 | 34739 ft | 430 kts | 105° |
| 2026-04-22 15:36 | 51.68226 | 13.69373 | 34734 ft | 430 kts | 105° |
| 2026-04-22 15:36 | 51.66305 | 13.78483 | 34728 ft | 429 kts | 105° |
| 2026-04-22 15:37 | 51.64378 | 13.87577 | 34728 ft | 429 kts | 105° |
| 2026-04-22 15:37 | 51.62447 | 13.96652 | 34726 ft | 428 kts | 105° |
| 2026-04-22 15:38 | 51.60514 | 14.05695 | 34728 ft | 427 kts | 105° |
| 2026-04-22 15:38 | 51.57602 | 14.19243 | 34720 ft | 427 kts | 105° |
| 2026-04-22 15:39 | 51.55654 | 14.28261 | 34721 ft | 427 kts | 105° |
| 2026-04-22 15:39 | 51.53714 | 14.37197 | 34719 ft | 426 kts | 105° |
| 2026-04-22 15:40 | 51.51754 | 14.46191 | 34716 ft | 426 kts | 105° |
| 2026-04-22 15:40 | 51.49786 | 14.55179 | 34714 ft | 426 kts | 105° |
| 2026-04-22 15:41 | 51.47813 | 14.64151 | 34701 ft | 426 kts | 105° |
| 2026-04-22 15:41 | 51.45848 | 14.73050 | 34698 ft | 426 kts | 105° |
| 2026-04-22 15:42 | 51.43866 | 14.81992 | 34695 ft | 426 kts | 105° |
| 2026-04-22 15:42 | 51.41878 | 14.90923 | 34698 ft | 425 kts | 105° |
| 2026-04-22 15:43 | 51.40115 | 14.99928 | 34697 ft | 421 kts | 99° |
| 2026-04-22 15:43 | 51.38910 | 15.09101 | 34692 ft | 421 kts | 98° |
| 2026-04-22 15:44 | 51.37729 | 15.18294 | 34690 ft | 421 kts | 98° |
| 2026-04-22 15:44 | 51.36530 | 15.27392 | 34691 ft | 421 kts | 98° |
| 2026-04-22 15:45 | 51.35301 | 15.36550 | 34685 ft | 421 kts | 98° |
| 2026-04-22 15:45 | 51.34059 | 15.45698 | 34683 ft | 421 kts | 98° |
| 2026-04-22 15:46 | 51.32807 | 15.54848 | 34679 ft | 421 kts | 98° |
| 2026-04-22 15:46 | 51.31549 | 15.63990 | 34671 ft | 421 kts | 99° |
| 2026-04-22 15:47 | 51.30284 | 15.73125 | 34672 ft | 421 kts | 99° |
| 2026-04-22 15:47 | 51.29013 | 15.82242 | 34669 ft | 421 kts | 99° |
| 2026-04-22 15:48 | 51.27735 | 15.91358 | 34668 ft | 421 kts | 99° |
| 2026-04-22 15:48 | 51.26457 | 16.00421 | 34660 ft | 421 kts | 99° |
| 2026-04-22 15:49 | 51.25163 | 16.09535 | 34662 ft | 420 kts | 99° |
| 2026-04-22 15:49 | 51.23865 | 16.18629 | 34659 ft | 420 kts | 99° |
| 2026-04-22 15:50 | 51.22560 | 16.27717 | 34654 ft | 420 kts | 99° |
| 2026-04-22 15:50 | 51.21247 | 16.36805 | 34656 ft | 420 kts | 99° |
| 2026-04-22 15:51 | 51.20153 | 16.44343 | 34662 ft | 420 kts | 99° |
| 2026-04-22 15:51 | 51.18828 | 16.53413 | 34666 ft | 420 kts | 99° |
| 2026-04-22 15:52 | 51.17497 | 16.62474 | 34665 ft | 420 kts | 99° |
| 2026-04-22 15:52 | 51.16159 | 16.71535 | 34668 ft | 420 kts | 99° |
| 2026-04-22 15:53 | 51.14814 | 16.80583 | 34669 ft | 420 kts | 99° |
| 2026-04-22 15:53 | 51.13461 | 16.89637 | 34672 ft | 420 kts | 99° |
| 2026-04-22 15:54 | 51.12103 | 16.98669 | 34671 ft | 419 kts | 99° |
| 2026-04-22 15:54 | 51.10737 | 17.07708 | 34670 ft | 419 kts | 99° |
| 2026-04-22 15:55 | 51.09366 | 17.16726 | 34662 ft | 419 kts | 99° |
| 2026-04-22 15:55 | 51.07988 | 17.25736 | 34656 ft | 419 kts | 99° |
| 2026-04-22 15:56 | 51.06611 | 17.34697 | 34649 ft | 420 kts | 99° |
| 2026-04-22 15:56 | 51.05217 | 17.43709 | 34641 ft | 420 kts | 99° |
| 2026-04-22 15:57 | 51.03817 | 17.52713 | 34639 ft | 420 kts | 99° |
| 2026-04-22 15:57 | 51.02409 | 17.61722 | 34634 ft | 420 kts | 99° |
| 2026-04-22 15:58 | 51.00993 | 17.70727 | 34636 ft | 420 kts | 99° |
| 2026-04-22 15:58 | 50.99571 | 17.79728 | 34632 ft | 420 kts | 99° |
| 2026-04-22 15:59 | 50.98147 | 17.88723 | 34630 ft | 420 kts | 100° |
| 2026-04-22 15:59 | 50.96708 | 17.97710 | 34633 ft | 420 kts | 100° |
| 2026-04-22 16:00 | 50.95259 | 18.06716 | 34238 ft | 423 kts | 100° |
| 2026-04-22 16:00 | 50.94535 | 18.11201 | 33842 ft | 418 kts | 100° |
| 2026-04-22 16:00 | 50.93815 | 18.15639 | 33425 ft | 414 kts | 100° |
| 2026-04-22 16:01 | 50.93097 | 18.20060 | 33028 ft | 414 kts | 100° |
| 2026-04-22 16:01 | 50.92379 | 18.24482 | 32631 ft | 415 kts | 100° |
| 2026-04-22 16:01 | 50.91656 | 18.28919 | 32246 ft | 415 kts | 100° |
| 2026-04-22 16:01 | 50.90932 | 18.33348 | 31860 ft | 415 kts | 100° |
| 2026-04-22 16:02 | 50.90206 | 18.37780 | 31480 ft | 415 kts | 100° |
| 2026-04-22 16:02 | 50.89489 | 18.42141 | 31100 ft | 415 kts | 101° |
| 2026-04-22 16:02 | 50.88761 | 18.46563 | 30732 ft | 414 kts | 101° |
| 2026-04-22 16:02 | 50.88031 | 18.50979 | 30365 ft | 414 kts | 101° |
| 2026-04-22 16:03 | 50.87292 | 18.55444 | 29948 ft | 414 kts | 101° |
| 2026-04-22 16:03 | 50.86568 | 18.59805 | 29522 ft | 415 kts | 101° |
| 2026-04-22 16:03 | 50.85831 | 18.64232 | 29108 ft | 417 kts | 101° |
| 2026-04-22 16:03 | 50.85087 | 18.68696 | 28700 ft | 421 kts | 101° |
| 2026-04-22 16:04 | 50.83583 | 18.77683 | 28623 ft | 425 kts | 101° |
| 2026-04-22 16:04 | 50.82053 | 18.86770 | 28604 ft | 428 kts | 101° |
| 2026-04-22 16:05 | 50.80512 | 18.95860 | 28607 ft | 427 kts | 101° |
| 2026-04-22 16:05 | 50.78970 | 19.04917 | 28607 ft | 426 kts | 101° |
| 2026-04-22 16:06 | 50.77421 | 19.13970 | 28612 ft | 427 kts | 101° |
| 2026-04-22 16:06 | 50.75860 | 19.23049 | 28586 ft | 429 kts | 101° |
| 2026-04-22 16:07 | 50.75071 | 19.27626 | 28134 ft | 435 kts | 101° |
| 2026-04-22 16:07 | 50.74271 | 19.32259 | 27693 ft | 440 kts | 101° |
| 2026-04-22 16:07 | 50.73464 | 19.36906 | 27238 ft | 437 kts | 101° |
| 2026-04-22 16:07 | 50.72659 | 19.41519 | 26792 ft | 437 kts | 101° |
| 2026-04-22 16:08 | 50.71849 | 19.46162 | 26356 ft | 440 kts | 101° |
| 2026-04-22 16:08 | 50.71033 | 19.50827 | 25924 ft | 443 kts | 102° |
| 2026-04-22 16:08 | 50.70210 | 19.55522 | 25508 ft | 445 kts | 102° |
| 2026-04-22 16:08 | 50.69381 | 19.60238 | 25083 ft | 447 kts | 102° |
| 2026-04-22 16:09 | 50.68549 | 19.64949 | 24669 ft | 443 kts | 102° |
| 2026-04-22 16:09 | 50.67724 | 19.69607 | 24262 ft | 441 kts | 102° |
| 2026-04-22 16:09 | 50.66899 | 19.74259 | 23864 ft | 441 kts | 102° |
| 2026-04-22 16:09 | 50.66070 | 19.78920 | 23420 ft | 441 kts | 102° |
| 2026-04-22 16:10 | 50.65241 | 19.83579 | 22934 ft | 440 kts | 102° |
| 2026-04-22 16:10 | 50.64414 | 19.88200 | 22477 ft | 435 kts | 102° |
| 2026-04-22 16:10 | 50.63870 | 19.91235 | 22168 ft | 434 kts | 102° |
| 2026-04-22 16:10 | 50.62785 | 19.97282 | 21576 ft | 433 kts | 102° |
| 2026-04-22 16:11 | 50.61966 | 20.01839 | 21128 ft | 432 kts | 102° |
| 2026-04-22 16:11 | 50.61143 | 20.06399 | 20692 ft | 432 kts | 102° |
| 2026-04-22 16:11 | 50.60320 | 20.10952 | 20261 ft | 431 kts | 102° |
| 2026-04-22 16:11 | 50.59500 | 20.15469 | 19825 ft | 426 kts | 102° |
| 2026-04-22 16:12 | 50.58685 | 20.19947 | 19400 ft | 424 kts | 102° |
| 2026-04-22 16:12 | 50.57873 | 20.24404 | 18991 ft | 424 kts | 102° |
| 2026-04-22 16:12 | 50.57060 | 20.28858 | 18581 ft | 423 kts | 103° |
| 2026-04-22 16:12 | 50.56246 | 20.33310 | 18143 ft | 423 kts | 103° |
| 2026-04-22 16:13 | 50.55432 | 20.37746 | 17674 ft | 421 kts | 103° |
| 2026-04-22 16:13 | 50.54623 | 20.42136 | 17215 ft | 416 kts | 103° |
| 2026-04-22 16:13 | 50.53818 | 20.46498 | 16763 ft | 414 kts | 103° |
| 2026-04-22 16:13 | 50.53015 | 20.50847 | 16320 ft | 414 kts | 103° |
| 2026-04-22 16:14 | 50.52213 | 20.55176 | 15887 ft | 413 kts | 103° |
| 2026-04-22 16:14 | 50.51419 | 20.59451 | 15462 ft | 412 kts | 103° |
| 2026-04-22 16:14 | 50.50616 | 20.63765 | 15030 ft | 410 kts | 103° |
| 2026-04-22 16:14 | 50.49819 | 20.68035 | 14600 ft | 406 kts | 103° |
| 2026-04-22 16:15 | 50.49025 | 20.72280 | 14186 ft | 405 kts | 103° |
| 2026-04-22 16:15 | 50.48230 | 20.76521 | 13766 ft | 404 kts | 104° |
| 2026-04-22 16:15 | 50.47435 | 20.80756 | 13310 ft | 403 kts | 104° |
| 2026-04-22 16:15 | 50.46642 | 20.84973 | 12849 ft | 402 kts | 104° |
| 2026-04-22 16:16 | 50.45854 | 20.89150 | 12398 ft | 397 kts | 104° |
| 2026-04-22 16:16 | 50.45068 | 20.93304 | 11950 ft | 396 kts | 104° |
| 2026-04-22 16:16 | 50.44284 | 20.97440 | 11513 ft | 395 kts | 104° |
| 2026-04-22 16:16 | 50.43502 | 21.01561 | 11085 ft | 394 kts | 104° |
| 2026-04-22 16:17 | 50.42720 | 21.05672 | 10659 ft | 393 kts | 104° |
| 2026-04-22 16:17 | 50.41940 | 21.09768 | 10224 ft | 392 kts | 104° |
| 2026-04-22 16:17 | 50.41159 | 21.13861 | 9810 ft | 391 kts | 104° |
| 2026-04-22 16:17 | 50.40390 | 21.17873 | 9558 ft | 390 kts | 105° |
| 2026-04-22 16:18 | 50.39606 | 21.21938 | 9558 ft | 389 kts | 105° |
| 2026-04-22 16:18 | 50.38688 | 21.25919 | 9542 ft | 389 kts | 110° |
| 2026-04-22 16:18 | 50.37635 | 21.29825 | 9546 ft | 389 kts | 111° |
| 2026-04-22 16:18 | 50.36549 | 21.33710 | 9547 ft | 390 kts | 112° |
| 2026-04-22 16:19 | 50.35466 | 21.37600 | 9542 ft | 389 kts | 111° |
| 2026-04-22 16:19 | 50.34398 | 21.41490 | 9537 ft | 389 kts | 111° |
| 2026-04-22 16:19 | 50.33339 | 21.45392 | 9544 ft | 389 kts | 111° |
| 2026-04-22 16:19 | 50.32286 | 21.49293 | 9543 ft | 389 kts | 111° |
| 2026-04-22 16:20 | 50.31238 | 21.53191 | 9546 ft | 389 kts | 111° |
| 2026-04-22 16:20 | 50.30185 | 21.57094 | 9387 ft | 391 kts | 111° |
| 2026-04-22 16:20 | 50.29125 | 21.60995 | 9073 ft | 387 kts | 112° |
| 2026-04-22 16:20 | 50.27854 | 21.64708 | 8804 ft | 386 kts | 120° |
| 2026-04-22 16:21 | 50.26385 | 21.68224 | 8545 ft | 387 kts | 122° |
| 2026-04-22 16:21 | 50.24889 | 21.71678 | 8272 ft | 378 kts | 122° |
| 2026-04-22 16:21 | 50.23482 | 21.74999 | 8002 ft | 366 kts | 121° |
| 2026-04-22 16:21 | 50.22124 | 21.78281 | 7757 ft | 354 kts | 121° |
| 2026-04-22 16:22 | 50.19761 | 21.84602 | 7338 ft | 320 kts | 104° |
| 2026-04-22 16:22 | 50.19433 | 21.87924 | 7166 ft | 302 kts | 90° |
| 2026-04-22 16:22 | 50.19381 | 21.91118 | 7015 ft | 286 kts | 88° |
| 2026-04-22 16:23 | 50.19343 | 21.97056 | 6650 ft | 266 kts | 88° |
| 2026-04-22 16:23 | 50.19319 | 21.99939 | 6490 ft | 265 kts | 88° |
| 2026-04-22 16:23 | 50.19289 | 22.02829 | 6293 ft | 266 kts | 88° |
| 2026-04-22 16:24 | 50.19255 | 22.05719 | 6103 ft | 267 kts | 88° |
| 2026-04-22 16:24 | 50.19181 | 22.11482 | 5707 ft | 267 kts | 88° |
| 2026-04-22 16:24 | 50.19141 | 22.14371 | 5510 ft | 266 kts | 88° |
| 2026-04-22 16:25 | 50.19100 | 22.17257 | 5315 ft | 265 kts | 89° |
| 2026-04-22 16:25 | 50.19000 | 22.22987 | 4927 ft | 263 kts | 89° |
| 2026-04-22 16:25 | 50.18948 | 22.25809 | 4728 ft | 256 kts | 89° |
| 2026-04-22 16:26 | 50.18845 | 22.28553 | 4510 ft | 252 kts | 98° |
| 2026-04-22 16:26 | 50.18085 | 22.31001 | 4287 ft | 253 kts | 130° |
| 2026-04-22 16:26 | 50.16656 | 22.32452 | 4087 ft | 242 kts | 164° |
| 2026-04-22 16:26 | 50.15048 | 22.32792 | 4054 ft | 229 kts | 180° |
| 2026-04-22 16:27 | 50.13467 | 22.32739 | 4006 ft | 226 kts | 185° |
| 2026-04-22 16:27 | 50.11976 | 22.32097 | 3983 ft | 221 kts | 215° |
| 2026-04-22 16:27 | 50.10961 | 22.30389 | 3997 ft | 214 kts | 247° |
| 2026-04-22 16:27 | 50.10624 | 22.28185 | 3998 ft | 207 kts | 270° |
| 2026-04-22 16:28 | 50.10623 | 22.25942 | 3999 ft | 208 kts | 275° |
| 2026-04-22 16:28 | 50.10665 | 22.23678 | 4001 ft | 209 kts | 275° |
| 2026-04-22 16:28 | 50.10709 | 22.21396 | 3415 ft | 226 kts | 275° |
| 2026-04-22 16:28 | 50.10756 | 22.18882 | 2547 ft | 236 kts | 274° |
| 2026-04-22 16:29 | 50.10807 | 22.16384 | 2208 ft | 222 kts | 275° |
| 2026-04-22 16:29 | 50.10844 | 22.14087 | 1944 ft | 199 kts | 274° |
| 2026-04-22 16:29 | 50.10866 | 22.12082 | 1666 ft | 173 kts | 275° |
| 2026-04-22 16:29 | 50.10888 | 22.10330 | 1424 ft | 151 kts | 273° |
| 2026-04-22 16:30 | 50.10902 | 22.09273 | 1325 ft | 135 kts | 272° |
| 2026-04-22 16:30 | 50.10914 | 22.07339 | 1049 ft | 136 kts | 270° |
| 2026-04-22 16:30 | 50.10933 | 22.05902 | 849 ft | 129 kts | 271° |
| 2026-04-22 16:30 | 50.10958 | 22.04545 | 701 ft | 125 kts | 272° |
| 2026-04-22 16:31 | 50.10974 | 22.03357 | 689 ft | 75 kts | 271° |
| 2026-04-22 16:31 | 50.10983 | 22.02872 | 691 ft | 18 kts | 271° |
| 2026-04-22 16:31 | 50.11014 | 22.02751 | 692 ft | 7 kts | 333° |
| 2026-04-22 16:31 | 50.11063 | 22.02741 | 687 ft | 8 kts | 358° |
| 2026-04-22 16:32 | 50.11103 | 22.02741 | 691 ft | 0 kts | 1° |
| 2026-04-22 16:32 | 50.11123 | 22.02730 | 683 ft | 8 kts | 331° |
| 2026-04-22 16:32 | 50.11149 | 22.02658 | 691 ft | 8 kts | 279° |
| 2026-04-22 16:33 | 50.11152 | 22.02577 | 685 ft | 8 kts | 277° |
| 2026-04-22 16:33 | 50.11154 | 22.02472 | 690 ft | 12 kts | 270° |
| 2026-04-22 16:33 | 50.11159 | 22.02344 | 691 ft | 11 kts | 286° |
| 2026-04-22 16:33 | 50.11168 | 22.02319 | 685 ft | 2 kts | 316° |
| 2026-04-22 16:34 | 50.11206 | 22.02302 | 686 ft | 6 kts | 1° |
| 2026-04-22 16:34 | 50.11248 | 22.02304 | 687 ft | 6 kts | 2° |
| 2026-04-22 16:34 | 50.11293 | 22.02308 | 683 ft | 7 kts | 11° |
| 2026-04-22 16:34 | 50.11322 | 22.02361 | 684 ft | 7 kts | 86° |
| 2026-04-22 16:35 | 50.11320 | 22.02417 | 690 ft | 0 kts | 90° |
| 2026-04-22 16:35 | 50.11322 | 22.02451 | 688 ft | 5 kts | 85° |
| 2026-04-22 16:35 | 50.11329 | 22.02496 | 688 ft | 1 kts | 53° |
| 2026-04-22 16:35 | 50.11346 | 22.02500 | 688 ft | 5 kts | 356° |
| 2026-04-22 16:36 | 50.11364 | 22.02518 | 690 ft | 4 kts | 47° |
| 2026-04-22 16:36 | 50.11378 | 22.02533 | 687 ft | 4 kts | 20° |
| 2026-04-22 16:36 | 50.11402 | 22.02534 | 686 ft | 2 kts | 1° |
| 2026-04-22 16:36 | 50.11408 | 22.02534 | 688 ft | 0 kts | 1° |
| 2026-04-22 16:37 | 50.11411 | 22.02535 | 687 ft | 0 kts | 0° |